Scott Camp — WDF3203 — position and weather

sailwx.info

Track history (hours):
 
Tides and Currents Weather Stations Pressure Air Temp Water Temp Dewpoint Dewpoint Depression Visibility Wind Speed Wind Dir Waves Ship Positions

Scott Camp

Owner: Florida Marine Transporters, Inc., Mandeville, LA. More information available from US FCC via Universal Licensing System and Coast Guard Vessel Documentation Center.

Last reported at 2017-Nov-09 01:26 UTC. Time now 2017-Nov-19 02:53 UTC.
Position N 30°04' W 093°41'.
Warning: this ship's position is 10 days out of date.

Length 27 m; draft 3.2 m.

Type: Towing. MMSI: 367437150.

Date/timePositionNaut miles runAvg speedWind from/ knotsBaromVisibWave heightAir tempDewpointWater temp
2017-Nov-09 01:26N 30°04' W 093°41'3 6.1
2017-Nov-09 00:59N 30°04' W 093°38'3 6.4
2017-Nov-09 00:30N 30°04' W 093°34'3 6.0
2017-Nov-09 00:00N 30°04' W 093°31'3 6.2
2017-Nov-08 23:30N 30°04' W 093°27'3 6.2
2017-Nov-08 23:00N 30°04' W 093°23'2 3.8
2017-Nov-08 22:30N 30°04' W 093°21'1 1.5
2017-Nov-08 22:00N 30°04' W 093°21'0 0.3
2017-Nov-08 21:30N 30°04' W 093°21'0 0.0
2017-Nov-08 21:00N 30°04' W 093°21'0 0.1
2017-Nov-08 20:30N 30°04' W 093°21'1 1.9
2017-Nov-08 20:00N 30°05' W 093°20'0 0.0
2017-Nov-08 19:30N 30°05' W 093°20'0 0.0
2017-Nov-08 19:00N 30°05' W 093°20'0 0.0
2017-Nov-08 18:30N 30°05' W 093°20'0 0.0
2017-Nov-08 18:00N 30°05' W 093°20'0 0.0
2017-Nov-08 17:30N 30°05' W 093°20'0 0.0
2017-Nov-08 17:00N 30°05' W 093°20'0 0.0
2017-Nov-08 16:30N 30°05' W 093°20'0 0.0
2017-Nov-08 16:00N 30°05' W 093°20'0 0.0
2017-Nov-08 15:30N 30°05' W 093°20'0 0.0
2017-Nov-08 15:00N 30°05' W 093°20'0 0.0
2017-Nov-08 14:30N 30°05' W 093°20'0 0.9
2017-Nov-08 14:00N 30°05' W 093°20'0 0.7
2017-Nov-08 13:30N 30°04' W 093°20'3 5.6
2017-Nov-08 13:00N 30°07' W 093°20'3 6.6
2017-Nov-08 12:30N 30°10' W 093°19'1 1.5
2017-Nov-08 12:00N 30°11' W 093°19'0 0.0
2017-Nov-08 11:30N 30°11' W 093°19'0 0.0
2017-Nov-08 11:00N 30°11' W 093°19'0 0.0
2017-Nov-08 10:30N 30°11' W 093°19'0 0.0
2017-Nov-08 10:00N 30°11' W 093°19'0 0.0
2017-Nov-08 09:30N 30°11' W 093°19'0 0.0
2017-Nov-08 09:00N 30°11' W 093°19'0 0.0
2017-Nov-08 08:30N 30°11' W 093°19'0 0.0
2017-Nov-08 08:00N 30°11' W 093°19'0 0.0
2017-Nov-08 07:30N 30°11' W 093°19'0 0.0
2017-Nov-08 07:00N 30°11' W 093°19'0 0.0
2017-Nov-08 06:30N 30°11' W 093°19'0 0.0
2017-Nov-08 06:00N 30°11' W 093°19'0 0.0
2017-Nov-08 05:30N 30°11' W 093°19'0 0.0
2017-Nov-08 05:00N 30°11' W 093°19'0 0.0
2017-Nov-08 04:30N 30°11' W 093°19'0 0.0
2017-Nov-08 04:00N 30°11' W 093°19'0 0.0
2017-Nov-08 03:30N 30°11' W 093°19'0 0.0
2017-Nov-08 03:00N 30°11' W 093°19'0 0.0
2017-Nov-08 02:30N 30°11' W 093°19'0 0.0
2017-Nov-08 02:00N 30°11' W 093°19'0 0.0
2017-Nov-08 01:30N 30°11' W 093°19'0 0.0
2017-Nov-08 01:00N 30°11' W 093°19'0 0.0
2017-Nov-08 00:30N 30°11' W 093°19'0 0.0
2017-Nov-08 00:00N 30°11' W 093°19'0 0.0
2017-Nov-07 23:30N 30°11' W 093°19'0 0.0
2017-Nov-07 23:00N 30°11' W 093°19'0 0.0
2017-Nov-07 22:30N 30°11' W 093°19'0 0.0
2017-Nov-07 22:00N 30°11' W 093°19'0 0.0
2017-Nov-07 21:30N 30°11' W 093°19'0 0.0
2017-Nov-07 21:00N 30°11' W 093°19'0 0.0
2017-Nov-07 20:30N 30°11' W 093°19'0 0.0
2017-Nov-07 20:00N 30°11' W 093°19'0 0.0
2017-Nov-07 19:30N 30°11' W 093°19'0 0.0
2017-Nov-07 19:00N 30°11' W 093°19'0 0.0
2017-Nov-07 18:30N 30°11' W 093°19'0 0.0
2017-Nov-07 18:00N 30°11' W 093°19'0 0.0
2017-Nov-07 17:30N 30°11' W 093°19'0 0.0
2017-Nov-07 17:00N 30°11' W 093°19'0 0.0
2017-Nov-07 16:30N 30°11' W 093°19'0 0.0
2017-Nov-07 16:00N 30°11' W 093°19'0 0.0
2017-Nov-07 15:30N 30°11' W 093°19'0 0.1
2017-Nov-07 15:00N 30°11' W 093°19'0 0.4
2017-Nov-07 14:30N 30°11' W 093°19'1 2.2
2017-Nov-07 14:00N 30°10' W 093°19'3 7.0
2017-Nov-07 13:30N 30°06' W 093°20'2 3.1
2017-Nov-07 13:00N 30°05' W 093°20'0 0.1
2017-Nov-07 12:30N 30°05' W 093°20'1 1.4
2017-Nov-07 12:00N 30°04' W 093°20'2 4.4
2017-Nov-07 11:30N 30°07' W 093°20'3 6.2
2017-Nov-07 11:00N 30°10' W 093°19'2 3.3
2017-Nov-07 10:30N 30°11' W 093°19'0 0.0
2017-Nov-07 10:00N 30°11' W 093°19'0 0.0
2017-Nov-07 09:30N 30°11' W 093°19'0 0.0
2017-Nov-07 09:00N 30°11' W 093°19'0 0.0
2017-Nov-07 08:30N 30°11' W 093°19'0 0.0
2017-Nov-07 08:00N 30°11' W 093°19'0 0.0
2017-Nov-07 07:30N 30°11' W 093°19'0 0.0
2017-Nov-07 07:00N 30°11' W 093°19'0 0.0
2017-Nov-07 06:30N 30°11' W 093°19'0 0.0
2017-Nov-07 06:00N 30°11' W 093°19'0 0.0
2017-Nov-07 05:30N 30°11' W 093°19'0 0.0
2017-Nov-07 05:00N 30°11' W 093°19'0 0.0
2017-Nov-07 04:30N 30°11' W 093°19'0 0.0
2017-Nov-07 04:00N 30°11' W 093°19'0 0.0
2017-Nov-07 03:30N 30°11' W 093°19'0 0.0
2017-Nov-07 03:00N 30°11' W 093°19'0 0.0
2017-Nov-07 02:30N 30°11' W 093°19'0 0.0
2017-Nov-07 02:00N 30°11' W 093°19'0 0.0
2017-Nov-07 01:30N 30°11' W 093°19'0 0.0
2017-Nov-07 01:00N 30°11' W 093°19'0 0.0
2017-Nov-07 00:30N 30°11' W 093°19'0 0.0
2017-Nov-07 00:00N 30°11' W 093°19'0 0.0
2017-Nov-06 23:30N 30°11' W 093°19'0 0.0
2017-Nov-06 23:00N 30°11' W 093°19'0 0.0
2017-Nov-06 22:30N 30°11' W 093°19'0 0.0
2017-Nov-06 22:00N 30°11' W 093°19'0 0.0
2017-Nov-06 21:30N 30°11' W 093°19'0 0.0
2017-Nov-06 21:00N 30°11' W 093°19'0 0.0
2017-Nov-06 20:30N 30°11' W 093°19'91 3.1
2017-Nov-05 15:23N 29°30' W 094°52'3 7.2
2017-Nov-05 15:00N 29°32' W 094°54'3 6.3
2017-Nov-05 14:30N 29°34' W 094°56'3 6.3
2017-Nov-05 14:00N 29°37' W 094°57'3 6.5
2017-Nov-05 13:30N 29°40' W 094°59'3 6.0
2017-Nov-05 13:00N 29°42' W 095°01'3 5.5
2017-Nov-05 12:30N 29°44' W 095°03'3 4.0
2017-Nov-05 11:53N 29°45' W 095°06'2 6.0
2017-Nov-05 11:30N 29°44' W 095°09'3 0.3
2017-Nov-05 00:18N 29°44' W 095°12'0 0.0
2017-Nov-04 23:45N 29°44' W 095°12'0 0.0
2017-Nov-04 23:14N 29°44' W 095°12'0 0.0
2017-Nov-04 22:56N 29°44' W 095°12'0 0.0
2017-Nov-04 22:29N 29°44' W 095°12'0 0.0
2017-Nov-04 22:00N 29°44' W 095°12'0 0.0
2017-Nov-04 21:30N 29°44' W 095°12'0 0.0
2017-Nov-04 20:58N 29°44' W 095°12'0 0.0
2017-Nov-04 20:30N 29°44' W 095°12'0 0.0
2017-Nov-04 20:00N 29°44' W 095°12'0 0.0
2017-Nov-04 19:30N 29°44' W 095°12'0 0.0
2017-Nov-04 19:00N 29°44' W 095°12'0 0.0
2017-Nov-04 18:30N 29°44' W 095°12'0 0.0
2017-Nov-04 18:00N 29°44' W 095°12'0 0.0
2017-Nov-04 17:30N 29°44' W 095°12'0 0.0
2017-Nov-04 17:00N 29°44' W 095°12'0 0.0
2017-Nov-04 16:29N 29°44' W 095°12'0 0.0
2017-Nov-04 16:00N 29°44' W 095°12'0 0.0
2017-Nov-04 15:30N 29°44' W 095°12'0 0.0
2017-Nov-04 15:00N 29°44' W 095°12'0 0.4
2017-Nov-04 14:30N 29°44' W 095°12'0 0.5
2017-Nov-04 13:58N 29°44' W 095°12'0 0.0
2017-Nov-04 13:30N 29°44' W 095°12'0 0.0
2017-Nov-04 12:32N 29°44' W 095°12'0 0.0
2017-Nov-04 10:21N 29°44' W 095°12'0 0.0
2017-Nov-04 09:52N 29°44' W 095°12'0 0.0
2017-Nov-04 09:21N 29°44' W 095°12'0 0.0
2017-Nov-04 08:58N 29°44' W 095°12'0 0.0
2017-Nov-04 07:38N 29°44' W 095°12'0 0.0
2017-Nov-04 07:24N 29°44' W 095°12'0 0.0
2017-Nov-04 07:00N 29°44' W 095°12'0 0.0
2017-Nov-04 06:28N 29°44' W 095°12'0 0.2
2017-Nov-04 06:00N 29°44' W 095°12'2 3.6
2017-Nov-04 05:29N 29°45' W 095°10'4 6.4
2017-Nov-04 04:52N 29°45' W 095°06'1 0.5
2017-Nov-04 03:02N 29°46' W 095°05'0 5.8
2017-Nov-04 02:59N 29°46' W 095°05'0 0.1
2017-Nov-03 23:28N 29°46' W 095°06'1 0.7
2017-Nov-03 21:40N 29°45' W 095°06'2 7.3
2017-Nov-03 21:26N 29°44' W 095°08'3 6.3
2017-Nov-03 20:56N 29°45' W 095°12'2 4.1
2017-Nov-03 20:29N 29°44' W 095°13'3 5.4
2017-Nov-03 20:00N 29°45' W 095°11'2 4.4
2017-Nov-03 19:30N 29°44' W 095°08'3 4.7
2017-Nov-03 18:52N 29°46' W 095°05'1 0.0
2017-Nov-02 17:53N 29°46' W 095°05'0 0.0
2017-Nov-01 22:21N 29°47' W 095°05'1 3.3
2017-Nov-01 21:58N 29°47' W 095°04'0 0.3
2017-Nov-01 21:25N 29°47' W 095°04'2 0.9
2017-Nov-01 19:43N 29°46' W 095°05'0 0.0
2017-Oct-31 20:54N 29°46' W 095°05'1 2.5
2017-Oct-31 20:27N 29°47' W 095°06'1 0.6
2017-Oct-31 18:51N 29°46' W 095°06'1 0.1
2017-Oct-30 18:58N 29°47' W 095°05'3 5.8
2017-Oct-30 18:30N 29°44' W 095°03'2 0.2
2017-Oct-30 10:00N 29°43' W 095°01'0 0.7
2017-Oct-30 09:27N 29°44' W 095°01'0 0.0
2017-Oct-30 08:51N 29°44' W 095°01'0 0.0
2017-Oct-30 08:29N 29°44' W 095°01'0 0.0
2017-Oct-30 07:48N 29°44' W 095°01'0 0.0
2017-Oct-30 07:24N 29°44' W 095°01'0 0.0
2017-Oct-30 06:58N 29°44' W 095°01'0 0.0
2017-Oct-30 06:30N 29°44' W 095°01'0 0.0
2017-Oct-30 06:00N 29°44' W 095°01'0 0.0
2017-Oct-30 05:29N 29°44' W 095°01'0 0.0
2017-Oct-30 05:00N 29°44' W 095°01'0 0.0
2017-Oct-30 04:30N 29°44' W 095°01'0 0.0
2017-Oct-30 04:00N 29°44' W 095°01'0 0.0
2017-Oct-30 03:30N 29°44' W 095°01'0 0.0
2017-Oct-30 03:00N 29°44' W 095°01'0 0.0
2017-Oct-30 02:30N 29°44' W 095°01'0 0.0
2017-Oct-30 02:00N 29°44' W 095°01'0 0.0
2017-Oct-30 01:30N 29°44' W 095°01'  
Track history (hours):
 
Tides and Currents Weather Stations Pressure Air Temp Water Temp Dewpoint Dewpoint Depression Visibility Wind Speed Wind Dir Waves Ship Positions

Scott Camp

Owner: Florida Marine Transporters, Inc., Mandeville, LA. More information available from US FCC via Universal Licensing System and Coast Guard Vessel Documentation Center.

Last reported at 2017-Nov-09 01:26 UTC. Time now 2017-Nov-19 02:53 UTC.
Position N 30°04' W 093°41'.
Warning: this ship's position is 10 days out of date.

Length 27 m; draft 3.2 m.

Type: Towing. MMSI: 367437150.

Date/timePositionNaut miles runAvg speedWind from/ knotsBaromVisibWave heightAir tempDewpointWater temp
2017-Nov-09 01:26N 30°04' W 093°41'3 6.1
2017-Nov-09 00:59N 30°04' W 093°38'3 6.4
2017-Nov-09 00:30N 30°04' W 093°34'3 6.0
2017-Nov-09 00:00N 30°04' W 093°31'3 6.2
2017-Nov-08 23:30N 30°04' W 093°27'3 6.2
2017-Nov-08 23:00N 30°04' W 093°23'2 3.8
2017-Nov-08 22:30N 30°04' W 093°21'1 1.5
2017-Nov-08 22:00N 30°04' W 093°21'0 0.3
2017-Nov-08 21:30N 30°04' W 093°21'0 0.0
2017-Nov-08 21:00N 30°04' W 093°21'0 0.1
2017-Nov-08 20:30N 30°04' W 093°21'1 1.9
2017-Nov-08 20:00N 30°05' W 093°20'0 0.0
2017-Nov-08 19:30N 30°05' W 093°20'0 0.0
2017-Nov-08 19:00N 30°05' W 093°20'0 0.0
2017-Nov-08 18:30N 30°05' W 093°20'0 0.0
2017-Nov-08 18:00N 30°05' W 093°20'0 0.0
2017-Nov-08 17:30N 30°05' W 093°20'0 0.0
2017-Nov-08 17:00N 30°05' W 093°20'0 0.0
2017-Nov-08 16:30N 30°05' W 093°20'0 0.0
2017-Nov-08 16:00N 30°05' W 093°20'0 0.0
2017-Nov-08 15:30N 30°05' W 093°20'0 0.0
2017-Nov-08 15:00N 30°05' W 093°20'0 0.0
2017-Nov-08 14:30N 30°05' W 093°20'0 0.9
2017-Nov-08 14:00N 30°05' W 093°20'0 0.7
2017-Nov-08 13:30N 30°04' W 093°20'3 5.6
2017-Nov-08 13:00N 30°07' W 093°20'3 6.6
2017-Nov-08 12:30N 30°10' W 093°19'1 1.5
2017-Nov-08 12:00N 30°11' W 093°19'0 0.0
2017-Nov-08 11:30N 30°11' W 093°19'0 0.0
2017-Nov-08 11:00N 30°11' W 093°19'0 0.0
2017-Nov-08 10:30N 30°11' W 093°19'0 0.0
2017-Nov-08 10:00N 30°11' W 093°19'0 0.0
2017-Nov-08 09:30N 30°11' W 093°19'0 0.0
2017-Nov-08 09:00N 30°11' W 093°19'0 0.0
2017-Nov-08 08:30N 30°11' W 093°19'0 0.0
2017-Nov-08 08:00N 30°11' W 093°19'0 0.0
2017-Nov-08 07:30N 30°11' W 093°19'0 0.0
2017-Nov-08 07:00N 30°11' W 093°19'0 0.0
2017-Nov-08 06:30N 30°11' W 093°19'0 0.0
2017-Nov-08 06:00N 30°11' W 093°19'0 0.0
2017-Nov-08 05:30N 30°11' W 093°19'0 0.0
2017-Nov-08 05:00N 30°11' W 093°19'0 0.0
2017-Nov-08 04:30N 30°11' W 093°19'0 0.0
2017-Nov-08 04:00N 30°11' W 093°19'0 0.0
2017-Nov-08 03:30N 30°11' W 093°19'0 0.0
2017-Nov-08 03:00N 30°11' W 093°19'0 0.0
2017-Nov-08 02:30N 30°11' W 093°19'0 0.0
2017-Nov-08 02:00N 30°11' W 093°19'0 0.0
2017-Nov-08 01:30N 30°11' W 093°19'0 0.0
2017-Nov-08 01:00N 30°11' W 093°19'0 0.0
2017-Nov-08 00:30N 30°11' W 093°19'0 0.0
2017-Nov-08 00:00N 30°11' W 093°19'0 0.0
2017-Nov-07 23:30N 30°11' W 093°19'0 0.0
2017-Nov-07 23:00N 30°11' W 093°19'0 0.0
2017-Nov-07 22:30N 30°11' W 093°19'0 0.0
2017-Nov-07 22:00N 30°11' W 093°19'0 0.0
2017-Nov-07 21:30N 30°11' W 093°19'0 0.0
2017-Nov-07 21:00N 30°11' W 093°19'0 0.0
2017-Nov-07 20:30N 30°11' W 093°19'0 0.0
2017-Nov-07 20:00N 30°11' W 093°19'0 0.0
2017-Nov-07 19:30N 30°11' W 093°19'0 0.0
2017-Nov-07 19:00N 30°11' W 093°19'0 0.0
2017-Nov-07 18:30N 30°11' W 093°19'0 0.0
2017-Nov-07 18:00N 30°11' W 093°19'0 0.0
2017-Nov-07 17:30N 30°11' W 093°19'0 0.0
2017-Nov-07 17:00N 30°11' W 093°19'0 0.0
2017-Nov-07 16:30N 30°11' W 093°19'0 0.0
2017-Nov-07 16:00N 30°11' W 093°19'0 0.0
2017-Nov-07 15:30N 30°11' W 093°19'0 0.1
2017-Nov-07 15:00N 30°11' W 093°19'0 0.4
2017-Nov-07 14:30N 30°11' W 093°19'1 2.2
2017-Nov-07 14:00N 30°10' W 093°19'3 7.0
2017-Nov-07 13:30N 30°06' W 093°20'2 3.1
2017-Nov-07 13:00N 30°05' W 093°20'0 0.1
2017-Nov-07 12:30N 30°05' W 093°20'1 1.4
2017-Nov-07 12:00N 30°04' W 093°20'2 4.4
2017-Nov-07 11:30N 30°07' W 093°20'3 6.2
2017-Nov-07 11:00N 30°10' W 093°19'2 3.3
2017-Nov-07 10:30N 30°11' W 093°19'0 0.0
2017-Nov-07 10:00N 30°11' W 093°19'0 0.0
2017-Nov-07 09:30N 30°11' W 093°19'0 0.0
2017-Nov-07 09:00N 30°11' W 093°19'0 0.0
2017-Nov-07 08:30N 30°11' W 093°19'0 0.0
2017-Nov-07 08:00N 30°11' W 093°19'0 0.0
2017-Nov-07 07:30N 30°11' W 093°19'0 0.0
2017-Nov-07 07:00N 30°11' W 093°19'0 0.0
2017-Nov-07 06:30N 30°11' W 093°19'0 0.0
2017-Nov-07 06:00N 30°11' W 093°19'0 0.0
2017-Nov-07 05:30N 30°11' W 093°19'0 0.0
2017-Nov-07 05:00N 30°11' W 093°19'0 0.0
2017-Nov-07 04:30N 30°11' W 093°19'0 0.0
2017-Nov-07 04:00N 30°11' W 093°19'0 0.0
2017-Nov-07 03:30N 30°11' W 093°19'0 0.0
2017-Nov-07 03:00N 30°11' W 093°19'0 0.0
2017-Nov-07 02:30N 30°11' W 093°19'0 0.0
2017-Nov-07 02:00N 30°11' W 093°19'0 0.0
2017-Nov-07 01:30N 30°11' W 093°19'0 0.0
2017-Nov-07 01:00N 30°11' W 093°19'0 0.0
2017-Nov-07 00:30N 30°11' W 093°19'0 0.0
2017-Nov-07 00:00N 30°11' W 093°19'0 0.0
2017-Nov-06 23:30N 30°11' W 093°19'0 0.0
2017-Nov-06 23:00N 30°11' W 093°19'0 0.0
2017-Nov-06 22:30N 30°11' W 093°19'0 0.0
2017-Nov-06 22:00N 30°11' W 093°19'0 0.0
2017-Nov-06 21:30N 30°11' W 093°19'0 0.0
2017-Nov-06 21:00N 30°11' W 093°19'0 0.0
2017-Nov-06 20:30N 30°11' W 093°19'91 3.1
2017-Nov-05 15:23N 29°30' W 094°52'3 7.2
2017-Nov-05 15:00N 29°32' W 094°54'3 6.3
2017-Nov-05 14:30N 29°34' W 094°56'3 6.3
2017-Nov-05 14:00N 29°37' W 094°57'3 6.5
2017-Nov-05 13:30N 29°40' W 094°59'3 6.0
2017-Nov-05 13:00N 29°42' W 095°01'3 5.5
2017-Nov-05 12:30N 29°44' W 095°03'3 4.0
2017-Nov-05 11:53N 29°45' W 095°06'2 6.0
2017-Nov-05 11:30N 29°44' W 095°09'3 0.3
2017-Nov-05 00:18N 29°44' W 095°12'0 0.0
2017-Nov-04 23:45N 29°44' W 095°12'0 0.0
2017-Nov-04 23:14N 29°44' W 095°12'0 0.0
2017-Nov-04 22:56N 29°44' W 095°12'0 0.0
2017-Nov-04 22:29N 29°44' W 095°12'0 0.0
2017-Nov-04 22:00N 29°44' W 095°12'0 0.0
2017-Nov-04 21:30N 29°44' W 095°12'0 0.0
2017-Nov-04 20:58N 29°44' W 095°12'0 0.0
2017-Nov-04 20:30N 29°44' W 095°12'0 0.0
2017-Nov-04 20:00N 29°44' W 095°12'0 0.0
2017-Nov-04 19:30N 29°44' W 095°12'0 0.0
2017-Nov-04 19:00N 29°44' W 095°12'0 0.0
2017-Nov-04 18:30N 29°44' W 095°12'0 0.0
2017-Nov-04 18:00N 29°44' W 095°12'0 0.0
2017-Nov-04 17:30N 29°44' W 095°12'0 0.0
2017-Nov-04 17:00N 29°44' W 095°12'0 0.0
2017-Nov-04 16:29N 29°44' W 095°12'0 0.0
2017-Nov-04 16:00N 29°44' W 095°12'0 0.0
2017-Nov-04 15:30N 29°44' W 095°12'0 0.0
2017-Nov-04 15:00N 29°44' W 095°12'0 0.4
2017-Nov-04 14:30N 29°44' W 095°12'0 0.5
2017-Nov-04 13:58N 29°44' W 095°12'0 0.0
2017-Nov-04 13:30N 29°44' W 095°12'0 0.0
2017-Nov-04 12:32N 29°44' W 095°12'0 0.0
2017-Nov-04 10:21N 29°44' W 095°12'0 0.0
2017-Nov-04 09:52N 29°44' W 095°12'0 0.0
2017-Nov-04 09:21N 29°44' W 095°12'0 0.0
2017-Nov-04 08:58N 29°44' W 095°12'0 0.0
2017-Nov-04 07:38N 29°44' W 095°12'0 0.0
2017-Nov-04 07:24N 29°44' W 095°12'0 0.0
2017-Nov-04 07:00N 29°44' W 095°12'0 0.0
2017-Nov-04 06:28N 29°44' W 095°12'0 0.2
2017-Nov-04 06:00N 29°44' W 095°12'2 3.6
2017-Nov-04 05:29N 29°45' W 095°10'4 6.4
2017-Nov-04 04:52N 29°45' W 095°06'1 0.5
2017-Nov-04 03:02N 29°46' W 095°05'0 5.8
2017-Nov-04 02:59N 29°46' W 095°05'0 0.1
2017-Nov-03 23:28N 29°46' W 095°06'1 0.7
2017-Nov-03 21:40N 29°45' W 095°06'2 7.3
2017-Nov-03 21:26N 29°44' W 095°08'3 6.3
2017-Nov-03 20:56N 29°45' W 095°12'2 4.1
2017-Nov-03 20:29N 29°44' W 095°13'3 5.4
2017-Nov-03 20:00N 29°45' W 095°11'2 4.4
2017-Nov-03 19:30N 29°44' W 095°08'3 4.7
2017-Nov-03 18:52N 29°46' W 095°05'1 0.0
2017-Nov-02 17:53N 29°46' W 095°05'0 0.0
2017-Nov-01 22:21N 29°47' W 095°05'1 3.3
2017-Nov-01 21:58N 29°47' W 095°04'0 0.3
2017-Nov-01 21:25N 29°47' W 095°04'2 0.9
2017-Nov-01 19:43N 29°46' W 095°05'0 0.0
2017-Oct-31 20:54N 29°46' W 095°05'1 2.5
2017-Oct-31 20:27N 29°47' W 095°06'1 0.6
2017-Oct-31 18:51N 29°46' W 095°06'1 0.1
2017-Oct-30 18:58N 29°47' W 095°05'3 5.8
2017-Oct-30 18:30N 29°44' W 095°03'2 0.2
2017-Oct-30 10:00N 29°43' W 095°01'0 0.7
2017-Oct-30 09:27N 29°44' W 095°01'0 0.0
2017-Oct-30 08:51N 29°44' W 095°01'0 0.0
2017-Oct-30 08:29N 29°44' W 095°01'0 0.0
2017-Oct-30 07:48N 29°44' W 095°01'0 0.0
2017-Oct-30 07:24N 29°44' W 095°01'0 0.0
2017-Oct-30 06:58N 29°44' W 095°01'0 0.0
2017-Oct-30 06:30N 29°44' W 095°01'0 0.0
2017-Oct-30 06:00N 29°44' W 095°01'0 0.0
2017-Oct-30 05:29N 29°44' W 095°01'0 0.0
2017-Oct-30 05:00N 29°44' W 095°01'0 0.0
2017-Oct-30 04:30N 29°44' W 095°01'0 0.0
2017-Oct-30 04:00N 29°44' W 095°01'0 0.0
2017-Oct-30 03:30N 29°44' W 095°01'0 0.0
2017-Oct-30 03:00N 29°44' W 095°01'0 0.0
2017-Oct-30 02:30N 29°44' W 095°01'0 0.0
2017-Oct-30 02:00N 29°44' W 095°01'0 0.0
2017-Oct-30 01:30N 29°44' W 095°01'  

Dump ship's entire track history